createdAt,value
2019-05-03T00:02:28.596Z,54.96
2019-05-03T00:05:27.895Z,55.24
2019-05-03T00:08:07.799Z,54.93
2019-05-03T00:10:42.643Z,54.98
2019-05-03T00:13:19.012Z,55.73
2019-05-03T00:16:12.318Z,55.00
2019-05-03T00:18:47.304Z,55.00
2019-05-03T00:21:22.289Z,55.07
2019-05-03T00:23:57.262Z,54.85
2019-05-03T00:26:32.133Z,55.15
2019-05-03T00:29:06.860Z,55.25
2019-05-03T00:31:42.328Z,55.39
2019-05-03T00:34:21.869Z,55.53
2019-05-03T00:36:58.757Z,55.35
2019-05-03T00:39:38.554Z,55.04
2019-05-03T00:42:13.296Z,55.20
2019-05-03T00:44:47.978Z,55.54
2019-05-03T00:47:22.383Z,55.31
2019-05-03T00:49:57.299Z,55.31
2019-05-03T00:52:31.993Z,55.05
2019-05-03T00:55:16.188Z,55.37
2019-05-03T00:57:43.735Z,55.64
2019-05-03T01:00:18.305Z,55.64
2019-05-03T01:02:53.129Z,56.08
2019-05-03T01:05:27.964Z,56.48
2019-05-03T01:08:02.734Z,56.48
2019-05-03T01:10:37.288Z,56.48
2019-05-03T01:13:12.404Z,57.03
2019-05-03T01:15:57.288Z,56.76
2019-05-03T01:18:32.447Z,56.92
2019-05-03T01:21:07.289Z,57.16
2019-05-03T01:23:42.293Z,57.32
2019-05-03T01:26:16.879Z,58.03
2019-05-03T01:28:49.716Z,58.05
2019-05-03T01:31:23.944Z,58.52
2019-05-03T01:33:58.184Z,58.15
2019-05-03T01:36:32.717Z,58.63
2019-05-03T01:39:07.672Z,59.08
2019-05-03T01:41:42.335Z,58.92
2019-05-03T01:44:16.738Z,58.92
2019-05-03T01:46:51.599Z,58.75
2019-05-03T01:49:37.125Z,58.88
2019-05-03T01:52:19.351Z,58.77
2019-05-03T01:54:53.952Z,59.20
2019-05-03T01:57:28.242Z,59.10
2019-05-03T02:00:02.933Z,59.41
2019-05-03T02:02:48.650Z,59.21
2019-05-03T02:05:42.946Z,59.20
2019-05-03T02:08:17.357Z,60.53
2019-05-03T02:10:51.864Z,60.53
2019-05-03T02:13:25.034Z,61.70
2019-05-03T02:15:57.861Z,62.13
2019-05-03T02:18:32.114Z,61.86
2019-05-03T02:21:06.643Z,60.69
2019-05-03T02:23:42.563Z,60.69
2019-05-03T02:26:16.944Z,61.14
2019-05-03T02:28:52.757Z,61.23
2019-05-03T02:31:27.119Z,61.23
2019-05-03T02:34:03.529Z,60.34
2019-05-03T02:36:38.285Z,60.34
2019-05-03T02:39:14.574Z,60.78
2019-05-03T02:41:54.487Z,60.43
2019-05-03T02:44:26.689Z,60.42
2019-05-03T02:47:36.879Z,60.68
2019-05-03T02:50:16.635Z,60.41
2019-05-03T02:52:51.288Z,60.50
2019-05-03T02:55:26.400Z,60.76
2019-05-03T02:58:00.960Z,61.06
2019-05-03T03:00:59.286Z,61.29
2019-05-03T03:03:36.376Z,61.29
2019-05-03T03:06:10.973Z,62.01
2019-05-03T03:08:48.280Z,61.39
2019-05-03T03:11:26.139Z,61.39
2019-05-03T03:14:01.952Z,60.97
2019-05-03T03:16:37.782Z,61.67
2019-05-03T03:19:11.013Z,61.67
2019-05-03T03:21:48.344Z,62.62
2019-05-03T03:24:26.696Z,62.82
2019-05-03T03:27:05.317Z,62.90
2019-05-03T03:29:41.118Z,63.41
2019-05-03T03:32:30.402Z,64.16
2019-05-03T03:35:21.798Z,64.68
2019-05-03T03:37:56.085Z,64.68
2019-05-03T03:40:32.109Z,65.22
2019-05-03T03:43:07.420Z,65.22
2019-05-03T03:45:45.492Z,65.44
2019-05-03T03:48:20.287Z,65.55
2019-05-03T03:50:56.282Z,65.43
2019-05-03T03:53:35.625Z,65.21
2019-05-03T03:56:12.274Z,64.63
2019-05-03T03:58:46.906Z,64.68
2019-05-03T04:01:22.153Z,64.87
2019-05-03T04:03:57.108Z,64.63
2019-05-03T04:06:46.610Z,64.00
2019-05-03T04:09:20.347Z,64.19
2019-05-03T04:11:56.798Z,63.77
2019-05-03T04:14:37.551Z,64.30
2019-05-03T04:17:45.441Z,64.30
2019-05-03T04:20:21.672Z,64.12
2019-05-03T04:22:56.611Z,64.12
2019-05-03T04:25:31.677Z,63.74
2019-05-03T04:28:06.368Z,63.88
2019-05-03T04:30:40.865Z,63.57
2019-05-03T04:33:16.046Z,64.25
2019-05-03T04:35:50.481Z,64.17
2019-05-03T04:38:25.661Z,64.17
2019-05-03T04:41:01.359Z,64.01
2019-05-03T04:43:37.291Z,64.04
2019-05-03T04:46:25.851Z,64.03
2019-05-03T04:49:00.258Z,64.41
2019-05-03T04:51:35.209Z,64.08
2019-05-03T04:54:27.565Z,63.45
2019-05-03T04:57:02.325Z,63.72
2019-05-03T04:59:37.286Z,63.58
2019-05-03T05:02:12.071Z,63.76
2019-05-03T05:04:46.733Z,63.64
2019-05-03T05:07:20.034Z,63.64
2019-05-03T05:09:55.853Z,63.20
2019-05-03T05:12:30.277Z,60.25
2019-05-03T05:15:05.305Z,60.75
2019-05-03T05:17:46.877Z,60.55
2019-05-03T05:20:38.990Z,60.21
2019-05-03T05:23:11.843Z,60.28
2019-05-03T05:25:52.319Z,60.69
2019-05-03T05:28:36.521Z,61.11
2019-05-03T05:31:11.269Z,61.13
2019-05-03T05:33:45.788Z,61.13
2019-05-03T05:36:20.696Z,61.10
2019-05-03T05:38:56.287Z,60.68
2019-05-03T05:41:31.274Z,61.18
2019-05-03T05:44:06.424Z,60.43
2019-05-03T05:46:48.370Z,60.93
2019-05-03T05:49:40.624Z,61.45
2019-05-03T05:52:15.522Z,60.35
2019-05-03T05:54:57.387Z,60.71
2019-05-03T05:58:01.966Z,60.95
2019-05-03T06:00:35.813Z,61.22
2019-05-03T06:03:10.279Z,60.78
2019-05-03T06:05:45.275Z,60.78
2019-05-03T06:08:37.629Z,61.63
2019-05-03T06:11:30.060Z,61.21
2019-05-03T06:14:24.514Z,61.61
2019-05-03T06:17:14.733Z,61.94
2019-05-03T06:19:57.950Z,62.00
2019-05-03T06:22:49.736Z,62.73
2019-05-03T06:25:29.330Z,62.73
2019-05-03T06:29:38.091Z,62.51
2019-05-03T06:32:30.282Z,62.97
2019-05-03T06:35:05.268Z,62.97
2019-05-03T06:37:45.880Z,62.67
2019-05-03T06:40:21.259Z,61.74
2019-05-03T06:43:09.044Z,60.44
2019-05-03T06:45:41.130Z,60.18
2019-05-03T06:48:17.704Z,60.74
2019-05-03T06:50:52.373Z,60.62
2019-05-03T06:53:27.301Z,60.36
2019-05-03T06:56:04.018Z,60.03
2019-05-03T06:58:38.890Z,59.59
2019-05-03T07:01:29.423Z,58.78
2019-05-03T07:04:15.279Z,57.78
2019-05-03T07:07:07.748Z,57.09
2019-05-03T07:09:54.878Z,56.76
2019-05-03T07:12:31.278Z,54.56
2019-05-03T07:15:06.137Z,53.41
2019-05-03T07:17:41.262Z,51.80
2019-05-03T07:20:16.286Z,50.15
2019-05-03T07:22:51.281Z,50.15
2019-05-03T07:25:26.886Z,50.73
2019-05-03T07:28:01.516Z,51.05
2019-05-03T07:30:37.080Z,50.10
2019-05-03T07:33:17.698Z,50.39
2019-05-03T07:35:54.662Z,50.40
2019-05-03T07:38:29.257Z,51.02
2019-05-03T07:43:36.047Z,50.98
2019-05-03T07:46:11.255Z,50.12
2019-05-03T07:48:46.278Z,48.52
2019-05-03T07:51:20.885Z,49.30
2019-05-03T07:53:55.636Z,49.67
2019-05-03T07:56:35.611Z,49.51
2019-05-03T07:59:10.455Z,49.36
2019-05-03T08:01:48.409Z,49.13
2019-05-03T08:04:25.408Z,49.16
2019-05-03T08:06:59.928Z,49.79
2019-05-03T08:09:35.128Z,49.01
2019-05-03T08:12:09.943Z,50.30
2019-05-03T08:14:44.673Z,49.22
2019-05-03T08:17:19.353Z,48.35
2019-05-03T08:19:55.198Z,47.81
2019-05-03T08:22:30.386Z,48.35
2019-05-03T08:25:05.892Z,48.61
2019-05-03T08:27:39.307Z,46.43
2019-05-03T08:30:17.284Z,46.36
2019-05-03T08:33:08.278Z,46.48
2019-05-03T08:35:44.908Z,46.68
2019-05-03T08:38:19.910Z,44.22
2019-05-03T08:40:56.378Z,44.28
2019-05-03T08:43:31.475Z,45.04
2019-05-03T08:46:07.283Z,45.18
2019-05-03T08:48:42.275Z,44.99
2019-05-03T08:51:17.209Z,45.09
2019-05-03T08:53:52.624Z,45.04
2019-05-03T08:56:27.481Z,44.55
2019-05-03T08:59:02.286Z,45.89
2019-05-03T09:01:39.439Z,45.51
2019-05-03T09:04:15.342Z,45.69
2019-05-03T09:06:49.777Z,46.06
2019-05-03T09:09:34.714Z,45.98
2019-05-03T09:12:07.537Z,45.98
2019-05-03T09:14:45.805Z,46.07
2019-05-03T09:17:18.941Z,46.40
2019-05-03T09:19:54.828Z,47.42
2019-05-03T09:22:29.905Z,46.85
2019-05-03T09:25:04.989Z,46.88
2019-05-03T09:27:41.897Z,46.88
2019-05-03T09:30:17.272Z,47.72
2019-05-03T09:32:52.286Z,48.11
2019-05-03T09:35:32.908Z,48.04
2019-05-03T09:38:05.755Z,47.95
2019-05-03T09:40:40.590Z,47.86
2019-05-03T09:43:15.739Z,48.10
2019-05-03T09:45:49.272Z,47.97
2019-05-03T09:48:25.521Z,46.70
2019-05-03T09:51:00.305Z,46.70
2019-05-03T09:53:40.765Z,46.46
2019-05-03T09:56:15.661Z,46.24
2019-05-03T09:58:49.119Z,45.62
2019-05-03T10:01:25.472Z,43.69
2019-05-03T10:04:01.302Z,43.69
2019-05-03T10:06:36.127Z,44.53
2019-05-03T10:09:11.286Z,44.76
2019-05-03T10:11:46.554Z,45.47
2019-05-03T10:14:20.295Z,46.90
2019-05-03T10:17:09.908Z,46.90
2019-05-03T10:19:45.906Z,47.25
2019-05-03T10:22:21.333Z,47.56
2019-05-03T10:24:55.943Z,47.35
2019-05-03T10:27:34.695Z,47.59
2019-05-03T10:30:12.948Z,47.70
2019-05-03T10:32:46.951Z,47.27
2019-05-03T10:35:22.129Z,46.88
2019-05-03T10:37:57.275Z,46.88
2019-05-03T10:40:32.279Z,46.43
2019-05-03T10:43:09.553Z,46.31
2019-05-03T10:45:44.988Z,45.88
2019-05-03T10:48:21.333Z,45.57
2019-05-03T10:50:56.669Z,45.57
2019-05-03T10:53:38.490Z,45.84
2019-05-03T10:56:24.569Z,45.63
2019-05-03T10:59:02.285Z,46.38
2019-05-03T11:01:54.761Z,46.38
2019-05-03T11:04:31.287Z,47.01
2019-05-03T11:07:06.285Z,47.13
2019-05-03T11:09:49.869Z,47.35
2019-05-03T11:12:19.506Z,47.14
2019-05-03T11:14:54.325Z,47.11
2019-05-03T11:17:29.627Z,47.58
2019-05-03T11:20:05.264Z,47.47
2019-05-03T11:22:41.080Z,47.48
2019-05-03T11:25:16.281Z,47.10
2019-05-03T11:27:55.351Z,47.10
2019-05-03T11:30:30.324Z,46.51
2019-05-03T11:33:17.274Z,46.64
2019-05-03T11:36:00.951Z,47.10
2019-05-03T11:38:41.443Z,47.47
2019-05-03T11:41:29.200Z,47.47
2019-05-03T11:43:53.773Z,46.93
2019-05-03T11:46:27.485Z,46.20
2019-05-03T11:49:02.434Z,46.70
2019-05-03T11:51:37.347Z,46.72
2019-05-03T11:54:12.287Z,46.25
2019-05-03T11:56:47.557Z,45.95
2019-05-03T11:59:22.312Z,47.04
2019-05-03T12:02:06.269Z,46.24
2019-05-03T12:04:41.275Z,46.24
2019-05-03T12:07:18.598Z,45.83
2019-05-03T12:09:54.686Z,46.32
2019-05-03T12:12:32.301Z,46.60
2019-05-03T12:15:07.553Z,46.60
2019-05-03T12:17:51.848Z,46.29
2019-05-03T12:20:22.291Z,44.87
2019-05-03T12:22:57.660Z,44.54
2019-05-03T12:25:35.093Z,45.12
2019-05-03T12:28:09.294Z,45.02
2019-05-03T12:30:44.861Z,44.44
2019-05-03T12:33:19.693Z,44.46
2019-05-03T12:35:55.064Z,44.46
2019-05-03T12:38:29.253Z,42.98
2019-05-03T12:41:05.601Z,44.35
2019-05-03T12:43:40.289Z,43.08
2019-05-03T12:46:16.891Z,42.94
2019-05-03T12:48:52.695Z,40.32
2019-05-03T12:51:27.461Z,40.32
2019-05-03T12:54:04.687Z,42.73
2019-05-03T12:56:38.911Z,41.03
2019-05-03T12:59:23.745Z,41.03
2019-05-03T13:02:15.859Z,39.27
2019-05-03T13:04:51.984Z,38.71
2019-05-03T13:07:31.640Z,38.52
2019-05-03T13:10:07.261Z,38.52
2019-05-03T13:12:50.685Z,40.39
2019-05-03T13:15:19.278Z,39.97
2019-05-03T13:17:55.357Z,40.60
2019-05-03T13:20:30.300Z,38.90
2019-05-03T13:23:25.328Z,39.67
2019-05-03T13:26:00.423Z,38.95
2019-05-03T13:28:36.275Z,37.55
2019-05-03T13:31:11.279Z,36.21
2019-05-03T13:33:46.268Z,36.63
2019-05-03T13:36:21.641Z,34.89
2019-05-03T13:39:11.421Z,32.37
2019-05-03T13:41:34.952Z,33.81
2019-05-03T13:44:09.942Z,33.61
2019-05-03T13:46:44.849Z,35.78
2019-05-03T13:49:18.440Z,35.78
2019-05-03T13:51:52.823Z,35.18
2019-05-03T13:54:25.689Z,34.56
2019-05-03T13:56:59.941Z,34.60
2019-05-03T13:59:34.630Z,35.08
2019-05-03T14:02:14.988Z,35.24
2019-05-03T14:04:52.463Z,33.37
2019-05-03T14:07:21.090Z,27.25
2019-05-03T14:09:55.765Z,25.70
2019-05-03T14:12:28.655Z,25.70
2019-05-03T14:15:02.882Z,26.50
2019-05-03T14:17:37.288Z,26.56
2019-05-03T14:20:21.335Z,28.28
2019-05-03T14:22:55.941Z,26.84
2019-05-03T14:25:30.420Z,28.30
2019-05-03T14:28:05.456Z,26.44
2019-05-03T14:30:40.274Z,25.32
2019-05-03T14:33:14.764Z,23.67
2019-05-03T14:35:48.943Z,25.00
2019-05-03T14:38:22.274Z,24.54
2019-05-03T14:40:56.722Z,21.08
2019-05-03T14:43:30.701Z,21.08
2019-05-03T14:46:05.552Z,21.19
2019-05-03T14:48:40.129Z,21.52
2019-05-03T14:51:56.723Z,19.75
2019-05-03T14:54:34.497Z,20.67
2019-05-03T14:57:17.910Z,20.67
2019-05-03T15:00:16.842Z,22.38
2019-05-03T15:03:15.113Z,25.15
2019-05-03T15:05:49.906Z,27.56
2019-05-03T15:08:23.030Z,27.56
2019-05-03T15:10:56.263Z,26.44
2019-05-03T15:13:30.660Z,29.64
2019-05-03T15:16:05.390Z,29.64
2019-05-03T15:18:40.327Z,28.03
2019-05-03T15:21:14.943Z,27.84
2019-05-03T15:23:47.990Z,28.14
2019-05-03T15:26:22.323Z,29.39
2019-05-03T15:28:56.892Z,29.05
2019-05-03T15:31:31.314Z,29.39
2019-05-03T15:34:05.942Z,30.28
2019-05-03T15:36:40.323Z,29.31
2019-05-03T15:39:15.409Z,29.95
2019-05-03T15:41:50.088Z,30.77
2019-05-03T15:44:34.127Z,31.27
2019-05-03T15:47:17.087Z,31.27
2019-05-03T15:49:51.680Z,32.66
2019-05-03T15:52:26.276Z,32.66
2019-05-03T15:55:00.686Z,33.08
2019-05-03T15:57:35.729Z,33.74
2019-05-03T16:00:12.070Z,33.74
2019-05-03T16:02:46.681Z,35.03
2019-05-03T16:05:21.266Z,35.03
2019-05-03T16:07:55.866Z,34.03
2019-05-03T16:10:28.993Z,34.11
2019-05-03T16:13:01.857Z,34.37
2019-05-03T16:15:36.045Z,34.37
2019-05-03T16:18:10.664Z,33.79
2019-05-03T16:20:45.204Z,33.79
2019-05-03T16:23:19.875Z,34.12
2019-05-03T16:25:54.556Z,34.95
2019-05-03T16:28:38.109Z,35.72
2019-05-03T16:31:15.256Z,34.99
2019-05-03T16:33:49.881Z,34.48
2019-05-03T16:36:23.171Z,34.43
2019-05-03T16:38:57.714Z,34.71
2019-05-03T16:41:32.405Z,34.71
2019-05-03T16:44:07.258Z,34.67
2019-05-03T16:46:42.109Z,34.25
2019-05-03T16:49:16.758Z,34.86
2019-05-03T16:51:50.017Z,34.86
2019-05-03T16:54:25.453Z,35.12
2019-05-03T16:57:00.285Z,35.30
2019-05-03T16:59:35.268Z,35.22
2019-05-03T17:02:10.287Z,35.27
2019-05-03T17:04:57.378Z,35.38
2019-05-03T17:07:39.741Z,36.12
2019-05-03T17:10:25.426Z,35.74
2019-05-03T17:13:00.117Z,36.17
2019-05-03T17:15:35.338Z,36.74
2019-05-03T17:18:10.026Z,37.76
2019-05-03T17:20:45.350Z,36.32
2019-05-03T17:23:21.268Z,36.31
2019-05-03T17:25:55.950Z,36.57
2019-05-03T17:28:30.773Z,36.94
2019-05-03T17:31:05.409Z,36.94
2019-05-03T17:33:50.619Z,36.98
2019-05-03T17:36:16.536Z,36.71
2019-05-03T17:38:52.677Z,36.57
2019-05-03T17:41:49.262Z,36.80
2019-05-03T17:44:31.511Z,36.72
2019-05-03T17:47:06.283Z,37.08
2019-05-03T17:49:40.964Z,37.76
2019-05-03T17:52:34.454Z,38.23
2019-05-03T17:55:35.202Z,38.19
2019-05-03T17:58:17.102Z,38.19
2019-05-03T18:01:13.378Z,37.76
2019-05-03T18:03:49.955Z,37.99
2019-05-03T18:06:27.434Z,38.46
2019-05-03T18:09:21.360Z,38.28
2019-05-03T18:11:58.362Z,37.93
2019-05-03T18:14:34.509Z,38.06
2019-05-03T18:17:09.291Z,38.29
2019-05-03T18:19:44.853Z,38.13
2019-05-03T18:22:19.697Z,38.56
2019-05-03T18:24:54.653Z,38.56
2019-05-03T18:27:29.585Z,38.76
2019-05-03T18:30:04.723Z,38.52
2019-05-03T18:32:39.636Z,38.78
2019-05-03T18:35:15.296Z,38.80
2019-05-03T18:37:58.736Z,38.46
2019-05-03T18:40:35.443Z,38.90
2019-05-03T18:43:15.029Z,38.88
2019-05-03T18:46:09.678Z,38.72
2019-05-03T18:48:44.604Z,38.46
2019-05-03T18:51:19.453Z,38.87
2019-05-03T18:53:54.429Z,39.20
2019-05-03T18:56:29.290Z,39.45
2019-05-03T18:59:05.118Z,39.73
2019-05-03T19:01:39.955Z,39.68
2019-05-03T19:04:34.014Z,39.68
2019-05-03T19:07:04.334Z,39.85
2019-05-03T19:09:47.331Z,40.37
2019-05-03T19:12:55.079Z,40.37
2019-05-03T19:15:29.420Z,40.50
2019-05-03T19:18:07.906Z,40.10
2019-05-03T19:20:40.933Z,40.44
2019-05-03T19:23:15.475Z,40.31
2019-05-03T19:25:50.653Z,40.23
2019-05-03T19:28:25.504Z,40.23
2019-05-03T19:31:00.626Z,40.26
2019-05-03T19:33:37.298Z,40.19
2019-05-03T19:36:12.098Z,40.12
2019-05-03T19:38:46.960Z,39.79
2019-05-03T19:41:21.295Z,40.09
2019-05-03T19:43:56.280Z,39.74
2019-05-03T19:46:31.166Z,39.91
2019-05-03T19:49:06.134Z,39.95
2019-05-03T19:51:41.288Z,39.95
2019-05-03T19:54:16.139Z,39.72
2019-05-03T19:56:51.276Z,39.79
2019-05-03T20:00:00.264Z,39.82
2019-05-03T20:02:54.439Z,40.03
2019-05-03T20:05:45.340Z,40.32
2019-05-03T20:08:26.538Z,40.81
2019-05-03T20:11:16.961Z,40.83
2019-05-03T20:13:51.372Z,41.70
2019-05-03T20:16:26.279Z,41.70
2019-05-03T20:19:01.115Z,42.05
2019-05-03T20:21:35.899Z,42.23
2019-05-03T20:24:10.453Z,42.33
2019-05-03T20:26:45.289Z,42.78
2019-05-03T20:29:20.279Z,42.92
2019-05-03T20:31:55.293Z,42.57
2019-05-03T20:34:29.951Z,43.09
2019-05-03T20:37:05.321Z,43.20
2019-05-03T20:39:40.270Z,42.58
2019-05-03T20:42:17.271Z,42.64
2019-05-03T20:44:57.287Z,42.92
2019-05-03T20:47:35.295Z,42.72
2019-05-03T20:50:16.296Z,42.78
2019-05-03T20:52:51.128Z,43.00
2019-05-03T20:55:25.644Z,43.09
2019-05-03T20:58:00.104Z,43.13
2019-05-03T21:00:35.881Z,42.86
2019-05-03T21:03:09.096Z,42.88
2019-05-03T21:05:44.448Z,42.85
2019-05-03T21:08:19.098Z,43.08
2019-05-03T21:10:55.050Z,44.07
2019-05-03T21:13:41.810Z,44.07
2019-05-03T21:16:22.860Z,43.59
2019-05-03T21:19:20.586Z,43.81
2019-05-03T21:22:07.954Z,43.75
2019-05-03T21:24:47.781Z,43.74
2019-05-03T21:27:24.531Z,43.74
2019-05-03T21:29:59.936Z,43.57
2019-05-03T21:32:35.150Z,43.78
2019-05-03T21:35:10.267Z,43.34
2019-05-03T21:37:45.366Z,43.56
2019-05-03T21:40:19.949Z,43.58
2019-05-03T21:42:54.606Z,43.69
2019-05-03T21:45:36.334Z,43.69
2019-05-03T21:48:15.118Z,44.20
2019-05-03T21:50:49.675Z,44.26
2019-05-03T21:53:25.094Z,44.30
2019-05-03T21:55:59.679Z,44.36
2019-05-03T21:58:35.283Z,44.36
2019-05-03T22:01:11.293Z,44.33
2019-05-03T22:03:45.927Z,44.47
2019-05-03T22:06:20.285Z,44.97
2019-05-03T22:08:55.424Z,45.25
2019-05-03T22:11:29.941Z,45.25
2019-05-03T22:14:04.870Z,45.55
2019-05-03T22:16:55.389Z,45.91
2019-05-03T22:19:29.947Z,45.92
2019-05-03T22:22:22.272Z,46.01
2019-05-03T22:24:58.590Z,46.11
2019-05-03T22:27:39.294Z,46.47
2019-05-03T22:30:14.403Z,46.57
2019-05-03T22:32:49.290Z,46.75
2019-05-03T22:35:25.087Z,47.25
2019-05-03T22:38:00.235Z,47.25
2019-05-03T22:40:35.441Z,47.52
2019-05-03T22:43:10.292Z,47.57
2019-05-03T22:45:45.602Z,47.72
2019-05-03T22:48:20.990Z,47.77
2019-05-03T22:50:55.677Z,47.85
2019-05-03T22:53:28.864Z,47.96
2019-05-03T22:56:04.889Z,47.95
2019-05-03T22:58:40.170Z,47.76
2019-05-03T23:01:16.634Z,47.76
2019-05-03T23:03:51.304Z,47.80
2019-05-03T23:06:25.873Z,48.11
2019-05-03T23:08:58.713Z,48.11
2019-05-03T23:11:32.959Z,47.76
2019-05-03T23:14:07.679Z,47.69
2019-05-03T23:16:41.955Z,47.82
2019-05-03T23:19:16.309Z,47.97
2019-05-03T23:22:02.436Z,47.83
2019-05-03T23:24:36.813Z,48.19
2019-05-03T23:27:11.110Z,47.96
2019-05-03T23:29:45.693Z,48.42
2019-05-03T23:32:20.287Z,48.42
2019-05-03T23:34:55.288Z,48.50
2019-05-03T23:37:30.158Z,48.55
2019-05-03T23:40:05.294Z,48.53
2019-05-03T23:42:39.940Z,48.75
2019-05-03T23:45:15.386Z,48.73
2019-05-03T23:47:50.292Z,48.62
2019-05-03T23:50:25.037Z,48.27
2019-05-03T23:52:59.693Z,49.40
2019-05-03T23:55:40.314Z,49.48
2019-05-03T23:58:14.715Z,49.48
